Time;durP1;ratioP1;P1;durP2;ratioP2;P2;SDS_P1;SDS_P2;PMS_P1;PMS_P2;Temp;Humidity;BMP_temperature;BMP_pressure;BME280_temperature;BME280_humidity;BME280_pressure;Samples;Min_cycle;Max_cycle;Signal;HPM_P1;HPM_P2
2022/03/23 00:01:24;;;;;;;17.15;8.85;;;12.40;51.40;;;;;;5077154;28;20544;-30
2022/03/23 00:03:49;;;;;;;13.55;7.93;;;12.40;51.40;;;;;;5095438;28;20349;-31
2022/03/23 00:06:16;;;;;;;16.90;8.93;;;12.30;51.40;;;;;;5095368;28;20023;-32
2022/03/23 00:08:42;;;;;;;15.20;9.15;;;12.30;51.40;;;;;;5095204;28;20031;-31
2022/03/23 00:11:08;;;;;;;17.05;8.88;;;12.30;51.40;;;;;;5094996;28;20025;-31
2022/03/23 00:13:34;;;;;;;13.80;9.05;;;12.30;51.50;;;;;;5094940;28;20031;-30
2022/03/23 00:16:00;;;;;;;15.70;8.32;;;12.20;51.50;;;;;;5094807;28;20028;-30
2022/03/23 00:18:25;;;;;;;18.27;8.15;;;12.20;51.50;;;;;;5094894;28;20468;-32
2022/03/23 00:20:51;;;;;;;16.45;9.43;;;12.20;51.60;;;;;;5094832;28;20028;-30
2022/03/23 00:23:16;;;;;;;14.50;8.20;;;12.10;51.60;;;;;;5094776;28;20044;-30
2022/03/23 00:25:42;;;;;;;20.17;9.00;;;12.10;51.70;;;;;;5094857;28;20077;-29
2022/03/23 00:28:08;;;;;;;15.60;9.10;;;12.10;51.70;;;;;;5094826;28;20016;-28
2022/03/23 00:30:34;;;;;;;15.70;8.55;;;12.00;51.60;;;;;;5094747;28;20032;-35
2022/03/23 00:33:02;;;;;;;14.77;8.82;;;12.00;51.60;;;;;;5094824;28;20024;-29
2022/03/23 00:35:29;;;;;;;15.93;8.98;;;12.00;51.60;;;;;;5094852;28;20116;-28
2022/03/23 00:37:55;;;;;;;15.65;8.68;;;12.00;51.70;;;;;;5094603;28;20028;-29
2022/03/23 00:40:21;;;;;;;18.80;8.82;;;12.00;52.30;;;;;;5094467;28;20464;-30
2022/03/23 00:42:47;;;;;;;13.40;8.10;;;11.90;51.60;;;;;;5094380;28;20032;-35
2022/03/23 00:45:13;;;;;;;17.17;9.35;;;12.00;51.70;;;;;;5094356;28;20020;-30
2022/03/23 00:47:39;;;;;;;18.70;8.95;;;12.00;51.70;;;;;;5094219;28;20487;-29
2022/03/23 00:50:05;;;;;;;19.33;9.02;;;11.90;51.60;;;;;;5094325;28;20024;-29
2022/03/23 00:52:31;;;;;;;16.02;9.60;;;11.90;51.60;;;;;;5094292;28;20032;-29
2022/03/23 00:54:57;;;;;;;16.77;8.80;;;11.80;51.60;;;;;;5094549;28;20491;-30
2022/03/23 00:57:23;;;;;;;13.90;8.52;;;11.80;51.60;;;;;;5093705;28;20048;-33
2022/03/23 00:59:49;;;;;;;17.88;9.43;;;11.80;51.60;;;;;;5094092;28;20012;-30
2022/03/23 01:02:14;;;;;;;17.65;8.75;;;11.80;51.70;;;;;;5094109;28;20468;-31
2022/03/23 01:04:41;;;;;;;20.20;8.32;;;11.70;51.60;;;;;;5093969;28;20024;-31
2022/03/23 01:07:07;;;;;;;16.38;8.75;;;11.80;51.70;;;;;;5094027;28;20024;-29
2022/03/23 01:09:32;;;;;;;16.73;8.57;;;11.70;51.60;;;;;;5094014;28;20142;-30
2022/03/23 01:11:58;;;;;;;15.02;8.63;;;11.70;51.60;;;;;;5094037;28;20020;-30
2022/03/23 01:14:25;;;;;;;19.17;8.85;;;11.70;51.50;;;;;;5093950;28;20507;-36
2022/03/23 01:16:52;;;;;;;13.25;8.73;;;11.70;51.50;;;;;;5075749;28;20031;-30
2022/03/23 01:19:22;;;;;;;13.23;8.43;;;11.70;51.40;;;;;;5093865;28;20020;-30
2022/03/23 01:21:48;;;;;;;15.55;8.27;;;11.70;51.40;;;;;;5094052;28;20020;-31
2022/03/23 01:24:14;;;;;;;16.63;8.80;;;11.70;51.40;;;;;;5093842;28;20020;-33
2022/03/23 01:26:39;;;;;;;15.55;8.52;;;11.70;51.30;;;;;;5093753;28;20027;-30
2022/03/23 01:29:05;;;;;;;12.82;8.27;;;11.60;51.20;;;;;;5093709;28;20345;-29
2022/03/23 01:31:31;;;;;;;17.13;8.93;;;11.60;51.20;;;;;;5093667;28;20059;-30
2022/03/23 01:33:59;;;;;;;17.10;9.02;;;11.60;51.20;;;;;;5093579;28;20031;-29
2022/03/23 01:36:29;;;;;;;15.70;8.48;;;11.60;51.20;;;;;;5093439;28;20027;-30
2022/03/23 01:38:55;;;;;;;14.13;8.45;;;11.50;51.20;;;;;;5075351;28;20476;-31
2022/03/23 01:41:21;;;;;;;16.10;8.60;;;11.50;51.20;;;;;;5093326;28;20065;-30
2022/03/23 01:43:47;;;;;;;13.75;8.40;;;11.50;51.20;;;;;;5093563;28;20451;-29
2022/03/23 01:46:16;;;;;;;18.00;8.85;;;11.50;51.20;;;;;;5093518;28;20020;-33
2022/03/23 01:48:41;;;;;;;15.57;8.52;;;11.40;51.00;;;;;;5075610;28;20027;-29
2022/03/23 01:51:07;;;;;;;15.48;8.25;;;11.40;51.00;;;;;;5093338;28;20396;-31
2022/03/23 01:53:32;;;;;;;14.60;7.85;;;11.50;50.90;;;;;;5093198;28;20020;-29
2022/03/23 01:55:59;;;;;;;15.38;8.95;;;11.40;51.40;;;;;;5093039;28;20043;-29
2022/03/23 01:58:25;;;;;;;14.52;9.07;;;11.40;50.80;;;;;;5092694;28;20549;-31
2022/03/23 02:00:51;;;;;;;17.50;9.10;;;11.40;50.80;;;;;;5093327;28;20379;-32
2022/03/23 02:03:17;;;;;;;15.07;8.73;;;11.40;50.80;;;;;;5092968;28;20095;-30
2022/03/23 02:05:43;;;;;;;11.85;7.60;;;11.40;50.80;;;;;;5092988;28;20490;-32
2022/03/23 02:08:10;;;;;;;12.18;8.30;;;11.30;50.70;;;;;;5092719;28;20020;-29
2022/03/23 02:10:35;;;;;;;14.50;8.57;;;11.30;50.70;;;;;;5092711;28;20479;-29
2022/03/23 02:13:01;;;;;;;16.42;8.05;;;11.30;50.60;;;;;;5074950;28;20036;-29
2022/03/23 02:15:29;;;;;;;14.05;8.32;;;11.30;50.70;;;;;;5093255;28;20460;-30
2022/03/23 02:17:57;;;;;;;15.60;9.05;;;11.20;50.40;;;;;;5092947;28;20024;-29
2022/03/23 02:20:23;;;;;;;13.85;8.75;;;11.20;50.40;;;;;;5093171;28;20456;-29
2022/03/23 02:22:48;;;;;;;14.43;8.77;;;11.20;50.50;;;;;;5074878;28;20020;-28
2022/03/23 02:25:28;;;;;;;14.77;8.60;;;11.20;50.60;;;;;;5092924;28;20020;-29
2022/03/23 02:27:55;;;;;;;13.63;8.00;;;11.10;50.60;;;;;;5093167;28;20027;-29
2022/03/23 02:30:22;;;;;;;15.25;8.07;;;11.10;50.60;;;;;;5092815;28;20020;-28
2022/03/23 02:32:49;;;;;;;16.52;8.23;;;11.10;50.60;;;;;;5093075;28;20520;-29
2022/03/23 02:35:15;;;;;;;17.73;8.88;;;11.00;50.50;;;;;;5092875;28;20103;-29
2022/03/23 02:37:41;;;;;;;13.60;8.32;;;11.00;50.50;;;;;;5092985;28;20122;-32
2022/03/23 02:40:09;;;;;;;15.43;9.05;;;10.90;50.50;;;;;;5092800;28;20052;-31
2022/03/23 02:42:38;;;;;;;14.38;8.57;;;10.90;50.60;;;;;;5092631;28;20027;-29
2022/03/23 02:45:06;;;;;;;13.77;8.40;;;10.80;50.60;;;;;;5092779;28;20495;-29
2022/03/23 02:47:32;;;;;;;16.00;9.43;;;10.80;50.60;;;;;;5092690;28;20024;-29
2022/03/23 02:49:58;;;;;;;14.50;8.68;;;10.70;50.60;;;;;;5092553;28;20061;-28
2022/03/23 02:52:23;;;;;;;15.82;9.18;;;10.70;50.70;;;;;;5092490;28;20054;-31
2022/03/23 03:03:32;;;;;;;15.63;8.93;;;10.60;51.40;;;;;;5092753;28;20291;-31
2022/03/23 03:05:58;;;;;;;14.57;8.43;;;10.50;50.80;;;;;;5092629;28;20028;-30
2022/03/23 03:11:08;;;;;;;15.70;9.23;;;10.50;50.70;;;;;;5092355;28;20055;-29
2022/03/23 03:13:34;;;;;;;14.68;8.73;;;10.50;50.80;;;;;;5092449;28;20028;-36
2022/03/23 03:16:02;;;;;;;14.15;9.10;;;10.40;50.80;;;;;;5092364;28;20026;-29
2022/03/23 03:18:33;;;;;;;15.13;8.75;;;10.40;50.80;;;;;;5092405;28;20047;-28
2022/03/23 03:21:00;;;;;;;14.82;8.65;;;10.40;50.80;;;;;;5093346;28;20472;-31
2022/03/23 03:23:26;;;;;;;13.75;9.43;;;10.30;50.80;;;;;;5095472;28;20074;-29
2022/03/23 03:25:52;;;;;;;15.40;9.13;;;10.30;50.80;;;;;;5096030;28;20395;-33
2022/03/23 03:28:17;;;;;;;13.55;9.00;;;10.30;50.80;;;;;;5095960;28;20024;-30
2022/03/23 03:30:43;;;;;;;18.08;9.55;;;10.30;50.80;;;;;;5096122;28;20149;-31
2022/03/23 03:33:09;;;;;;;15.90;8.30;;;10.30;50.90;;;;;;5096084;28;20024;-31
2022/03/23 03:35:34;;;;;;;15.07;8.70;;;10.30;50.90;;;;;;5095936;28;20089;-29
2022/03/23 03:38:00;;;;;;;15.25;8.52;;;10.30;50.90;;;;;;5095658;28;20036;-29
2022/03/23 03:40:25;;;;;;;16.42;8.90;;;10.30;50.90;;;;;;5095619;28;20071;-30
2022/03/23 03:42:51;;;;;;;18.40;9.55;;;10.30;51.00;;;;;;5077331;28;20388;-29
2022/03/23 03:45:16;;;;;;;18.42;9.38;;;10.30;50.90;;;;;;5095568;28;20150;-29
2022/03/23 03:47:42;;;;;;;16.83;9.52;;;10.20;50.90;;;;;;5095429;28;20020;-31
2022/03/23 03:50:08;;;;;;;14.05;8.40;;;10.20;50.90;;;;;;5095607;28;20028;-29
2022/03/23 03:52:34;;;;;;;14.65;9.57;;;10.20;50.90;;;;;;5095471;28;20069;-29
2022/03/23 03:54:59;;;;;;;15.05;8.88;;;10.20;50.90;;;;;;5095360;28;20110;-29
2022/03/23 03:57:25;;;;;;;16.63;8.40;;;10.20;51.00;;;;;;5095028;28;20044;-30
2022/03/23 03:59:51;;;;;;;15.02;9.20;;;10.20;51.00;;;;;;5095263;28;20016;-30
2022/03/23 04:02:16;;;;;;;18.17;9.57;;;10.10;51.00;;;;;;5095412;28;20046;-30
2022/03/23 04:04:42;;;;;;;14.45;8.60;;;10.10;51.00;;;;;;5095089;28;20024;-30
2022/03/23 04:07:07;;;;;;;15.02;8.27;;;10.10;51.00;;;;;;5095175;28;20480;-29
2022/03/23 04:09:33;;;;;;;14.98;9.15;;;10.10;51.00;;;;;;5095107;28;20034;-29
2022/03/23 04:11:58;;;;;;;15.80;9.10;;;10.10;51.10;;;;;;5095008;28;20059;-29
2022/03/23 04:14:24;;;;;;;16.73;9.40;;;10.10;51.10;;;;;;5095030;28;20123;-31
2022/03/23 04:16:49;;;;;;;16.50;9.10;;;10.10;51.00;;;;;;5094945;28;20480;-30
2022/03/23 04:19:15;;;;;;;16.70;8.85;;;10.10;51.00;;;;;;5094998;28;20095;-34
2022/03/23 04:21:40;;;;;;;15.20;9.32;;;10.10;51.00;;;;;;5094972;28;20024;-31
2022/03/23 04:24:06;;;;;;;15.43;8.95;;;10.10;51.00;;;;;;5094910;28;20032;-29
2022/03/23 04:26:32;;;;;;;13.32;8.63;;;10.10;50.90;;;;;;5095021;28;20020;-29
2022/03/23 04:28:57;;;;;;;17.63;9.68;;;10.10;50.90;;;;;;5094900;28;20103;-29
2022/03/23 04:31:23;;;;;;;20.38;9.75;;;10.10;50.90;;;;;;5094208;28;20028;-29
2022/03/23 04:33:48;;;;;;;13.63;8.65;;;10.10;50.90;;;;;;5094618;28;20829;-30
2022/03/23 04:36:14;;;;;;;15.70;9.25;;;10.10;50.90;;;;;;5094582;28;20020;-30
2022/03/23 04:38:40;;;;;;;15.13;9.65;;;10.10;50.90;;;;;;5076338;28;20385;-29
2022/03/23 04:41:05;;;;;;;14.63;9.30;;;10.10;50.90;;;;;;5094293;28;20032;-30
2022/03/23 04:43:32;;;;;;;16.83;9.82;;;10.00;50.90;;;;;;5094307;28;20075;-29
2022/03/23 04:45:58;;;;;;;17.40;9.65;;;10.00;50.90;;;;;;5076144;28;20016;-31
2022/03/23 04:48:24;;;;;;;16.05;8.88;;;10.00;51.00;;;;;;5094259;28;20114;-32
2022/03/23 04:50:49;;;;;;;17.60;9.90;;;9.90;50.90;;;;;;5094176;28;20030;-30
2022/03/23 04:53:16;;;;;;;14.15;9.05;;;9.90;51.00;;;;;;5094194;28;20016;-32
2022/03/23 04:55:41;;;;;;;14.52;9.23;;;9.90;51.00;;;;;;5094104;28;20099;-29
2022/03/23 04:58:07;;;;;;;17.13;9.70;;;9.90;51.10;;;;;;5094050;28;20578;-30
2022/03/23 05:00:34;;;;;;;17.60;9.60;;;9.90;51.10;;;;;;5094114;28;20019;-30
2022/03/23 05:03:00;;;;;;;15.13;9.18;;;9.90;51.20;;;;;;5093916;28;20074;-31
2022/03/23 05:05:26;;;;;;;16.05;9.57;;;9.80;51.20;;;;;;5093882;28;20077;-29
2022/03/23 05:07:52;;;;;;;17.77;9.95;;;9.80;51.20;;;;;;5093742;28;20480;-32
2022/03/23 05:10:17;;;;;;;16.13;9.65;;;9.80;51.30;;;;;;5093769;28;20053;-32
2022/03/23 05:12:45;;;;;;;16.00;9.75;;;9.70;51.30;;;;;;5093888;28;20028;-30
2022/03/23 05:15:11;;;;;;;15.05;9.48;;;9.70;51.30;;;;;;5094219;28;20431;-31
2022/03/23 05:17:38;;;;;;;15.45;9.70;;;9.70;51.40;;;;;;5093622;28;20376;-31
2022/03/23 05:20:05;;;;;;;15.10;9.80;;;9.60;51.40;;;;;;5076089;28;20024;-30
2022/03/23 05:22:30;;;;;;;19.05;10.52;;;9.60;51.40;;;;;;5093764;28;20091;-31
2022/03/23 05:24:56;;;;;;;15.77;9.18;;;9.60;51.50;;;;;;5075532;28;20044;-32
2022/03/23 05:27:22;;;;;;;16.08;9.43;;;9.60;51.60;;;;;;5093707;28;20492;-32
2022/03/23 05:29:47;;;;;;;16.67;10.82;;;9.50;51.60;;;;;;5075329;28;20534;-32
2022/03/23 05:32:16;;;;;;;16.38;9.60;;;9.50;51.70;;;;;;5075308;28;20036;-35
2022/03/23 05:34:49;;;;;;;18.55;10.13;;;9.50;51.70;;;;;;5093851;28;20024;-31
2022/03/23 05:37:16;;;;;;;17.55;10.10;;;9.50;51.80;;;;;;5093626;28;20034;-30
2022/03/23 05:39:43;;;;;;;19.55;10.38;;;9.50;51.90;;;;;;5074893;28;20030;-30
2022/03/23 05:42:09;;;;;;;16.45;9.70;;;9.50;51.90;;;;;;5092966;28;20032;-31
2022/03/23 05:44:36;;;;;;;17.48;9.93;;;9.50;52.00;;;;;;5092389;28;20020;-31
2022/03/23 05:47:02;;;;;;;16.17;9.88;;;9.40;52.00;;;;;;5093128;28;20063;-29
2022/03/23 05:49:28;;;;;;;18.27;10.10;;;9.40;52.10;;;;;;5092902;28;20031;-30
2022/03/23 05:51:53;;;;;;;15.57;9.98;;;9.40;52.10;;;;;;5093130;28;20473;-29
2022/03/23 05:54:20;;;;;;;20.08;10.13;;;9.40;52.20;;;;;;5092916;28;20031;-29
2022/03/23 05:56:46;;;;;;;17.88;10.50;;;9.40;52.20;;;;;;5092755;28;20071;-31
2022/03/23 05:59:11;;;;;;;16.05;9.98;;;9.40;52.30;;;;;;5093043;28;20468;-30
2022/03/23 06:01:37;;;;;;;18.77;10.05;;;9.40;52.40;;;;;;5092828;28;20060;-29
2022/03/23 06:04:03;;;;;;;17.92;10.65;;;9.30;52.40;;;;;;5092714;28;20012;-28
2022/03/23 06:06:29;;;;;;;20.58;11.38;;;9.40;52.50;;;;;;5092823;28;20047;-30
2022/03/23 06:08:54;;;;;;;18.70;10.10;;;9.40;52.50;;;;;;5093018;28;20055;-29
2022/03/23 06:11:20;;;;;;;17.05;10.52;;;9.40;52.50;;;;;;5092935;28;20492;-28
2022/03/23 06:13:46;;;;;;;18.27;10.85;;;9.40;52.60;;;;;;5092824;28;20122;-28
2022/03/23 06:16:11;;;;;;;18.95;10.77;;;9.40;52.70;;;;;;5092832;28;20034;-30
2022/03/23 06:18:38;;;;;;;19.75;10.88;;;9.40;52.70;;;;;;5092766;28;20052;-30
2022/03/23 06:21:04;;;;;;;17.42;10.73;;;9.40;52.70;;;;;;5092745;28;20016;-31
2022/03/23 06:23:30;;;;;;;19.52;11.05;;;9.50;52.90;;;;;;5092912;28;20375;-30
2022/03/23 06:25:57;;;;;;;18.60;11.00;;;9.50;53.00;;;;;;5092735;28;20016;-29
2022/03/23 06:28:23;;;;;;;18.10;10.48;;;9.50;53.00;;;;;;5092732;28;20497;-32
2022/03/23 06:30:53;;;;;;;16.70;10.85;;;9.50;53.00;;;;;;5092987;28;20039;-29
2022/03/23 06:33:19;;;;;;;19.65;11.07;;;9.50;53.10;;;;;;5092714;28;20020;-31
2022/03/23 06:35:45;;;;;;;17.92;10.90;;;9.50;53.20;;;;;;5092808;28;20420;-28
2022/03/23 06:38:12;;;;;;;21.08;12.07;;;9.60;53.30;;;;;;5092595;28;20064;-32
2022/03/23 06:40:38;;;;;;;19.80;11.10;;;9.60;53.30;;;;;;5092775;28;20020;-29
2022/03/23 06:43:04;;;;;;;19.40;11.30;;;9.60;53.30;;;;;;5092498;28;20032;-32
2022/03/23 06:45:30;;;;;;;19.13;10.90;;;9.60;53.20;;;;;;5074368;28;20021;-28
2022/03/23 06:47:56;;;;;;;18.30;10.70;;;9.70;53.20;;;;;;5092580;28;20024;-29
2022/03/23 06:50:22;;;;;;;18.27;11.10;;;9.70;53.20;;;;;;5092590;28;20024;-28
2022/03/23 06:52:47;;;;;;;18.70;10.90;;;9.80;53.20;;;;;;5092501;28;20058;-29
2022/03/23 06:55:13;;;;;;;19.70;10.48;;;9.90;53.10;;;;;;5093946;28;20047;-28
2022/03/23 06:57:39;;;;;;;20.40;11.15;;;10.00;53.10;;;;;;5096132;28;20040;-29
2022/03/23 07:00:13;;;;;;;18.42;10.60;;;10.00;53.00;;;;;;5096482;28;20120;-29
2022/03/23 07:02:43;;;;;;;20.23;10.98;;;10.00;52.90;;;;;;5096669;28;20074;-30
2022/03/23 07:05:10;;;;;;;22.25;12.48;;;10.10;52.90;;;;;;5096432;28;20008;-30
2022/03/23 07:07:37;;;;;;;18.55;11.82;;;10.10;52.80;;;;;;5078138;28;20418;-30
2022/03/23 07:10:06;;;;;;;18.05;11.13;;;10.20;52.70;;;;;;5096268;28;20021;-32
2022/03/23 07:12:32;;;;;;;17.17;10.20;;;10.20;52.60;;;;;;5096248;28;20338;-30
2022/03/23 07:14:58;;;;;;;17.58;10.90;;;10.30;52.60;;;;;;5078174;28;20066;-36
2022/03/23 07:17:23;;;;;;;19.77;10.82;;;10.30;52.50;;;;;;5096059;28;20023;-30
2022/03/23 07:19:50;;;;;;;20.30;11.05;;;10.40;52.50;;;;;;5078012;28;20100;-29
2022/03/23 07:22:15;;;;;;;18.92;10.75;;;10.40;52.40;;;;;;5096354;28;20441;-29
2022/03/23 07:24:42;;;;;;;17.42;10.77;;;10.50;52.30;;;;;;5096134;28;20012;-30
2022/03/23 07:27:08;;;;;;;20.95;11.45;;;10.50;52.20;;;;;;5095708;28;20020;-30
2022/03/23 07:29:35;;;;;;;18.70;10.52;;;10.60;52.20;;;;;;5096166;28;20036;-29
2022/03/23 07:32:01;;;;;;;20.33;10.35;;;10.60;52.20;;;;;;5095927;28;20030;-31
2022/03/23 07:34:26;;;;;;;17.02;11.15;;;10.70;52.10;;;;;;5095798;28;20020;-29
2022/03/23 07:36:52;;;;;;;19.92;11.38;;;10.70;52.00;;;;;;5095695;28;20028;-30
2022/03/23 07:39:21;;;;;;;17.70;10.88;;;10.80;51.90;;;;;;5095633;28;20065;-29
2022/03/23 07:41:50;;;;;;;23.00;11.98;;;10.90;51.90;;;;;;5095644;28;20020;-29
2022/03/23 07:44:18;;;;;;;20.25;11.48;;;10.90;51.80;;;;;;5077309;28;20035;-31
2022/03/23 07:46:44;;;;;;;18.48;11.40;;;11.00;51.80;;;;;;5095506;28;20146;-30
2022/03/23 07:49:10;;;;;;;16.08;11.00;;;11.00;51.60;;;;;;5095629;28;20036;-28
2022/03/23 07:51:35;;;;;;;18.08;11.60;;;11.00;51.60;;;;;;5095412;28;20465;-28
2022/03/23 07:54:01;;;;;;;20.95;12.25;;;11.10;51.50;;;;;;5095441;28;20107;-30
2022/03/23 07:56:26;;;;;;;18.80;11.75;;;11.20;51.40;;;;;;5095175;28;20043;-31
2022/03/23 07:58:52;;;;;;;20.33;11.18;;;11.30;51.40;;;;;;5095255;28;20024;-29
2022/03/23 08:01:18;;;;;;;17.02;11.27;;;11.30;51.40;;;;;;5095439;28;20024;-32
2022/03/23 08:03:43;;;;;;;16.10;10.43;;;11.40;51.30;;;;;;5095454;28;20533;-31
2022/03/23 08:06:09;;;;;;;16.80;10.93;;;11.50;51.40;;;;;;5094882;28;20111;-30
2022/03/23 08:08:34;;;;;;;17.42;10.35;;;11.50;51.50;;;;;;5094916;28;20024;-30
2022/03/23 08:11:00;;;;;;;18.45;10.90;;;11.70;51.50;;;;;;5095198;28;20096;-30
2022/03/23 08:13:25;;;;;;;20.55;11.93;;;11.80;51.50;;;;;;5095365;28;20024;-30
2022/03/23 08:15:51;;;;;;;20.08;11.77;;;11.90;51.30;;;;;;5095388;28;20044;-30
2022/03/23 08:18:21;;;;;;;19.13;12.30;;;11.90;51.10;;;;;;5095031;28;20052;-29
2022/03/23 08:20:48;;;;;;;19.45;11.95;;;12.00;51.00;;;;;;5094892;28;20016;-29
2022/03/23 08:23:15;;;;;;;21.15;11.98;;;12.00;51.00;;;;;;5094891;28;20038;-30
2022/03/23 08:25:42;;;;;;;20.33;12.77;;;12.10;51.00;;;;;;5094727;28;20069;-29
2022/03/23 08:28:12;;;;;;;21.95;12.50;;;12.10;50.90;;;;;;5094787;28;20028;-31
2022/03/23 08:30:38;;;;;;;18.38;11.90;;;12.20;50.90;;;;;;5076493;28;20016;-29
2022/03/23 08:33:04;;;;;;;21.63;12.77;;;12.30;50.90;;;;;;5094637;28;20104;-29
2022/03/23 08:35:31;;;;;;;21.02;12.43;;;12.30;50.80;;;;;;5094634;28;20086;-30
2022/03/23 08:37:56;;;;;;;20.15;12.23;;;12.40;50.70;;;;;;5094574;28;20020;-29
2022/03/23 08:40:22;;;;;;;19.02;12.23;;;12.40;50.60;;;;;;5094533;28;20361;-30
2022/03/23 08:42:48;;;;;;;17.25;11.55;;;12.50;50.60;;;;;;5094537;28;20024;-30
2022/03/23 08:45:15;;;;;;;20.10;12.57;;;12.50;50.60;;;;;;5094438;28;20118;-30
2022/03/23 08:47:41;;;;;;;19.80;12.25;;;12.60;50.50;;;;;;5094522;28;20026;-31
2022/03/23 08:50:09;;;;;;;19.73;12.95;;;12.60;50.40;;;;;;5094735;28;20058;-31
2022/03/23 08:52:35;;;;;;;19.63;11.52;;;12.70;50.30;;;;;;5094610;28;20059;-31
2022/03/23 08:55:04;;;;;;;20.48;12.38;;;12.70;50.20;;;;;;5094296;28;20020;-32
2022/03/23 08:57:29;;;;;;;19.33;12.20;;;12.80;50.00;;;;;;5094003;28;20059;-31
2022/03/23 08:59:55;;;;;;;20.25;13.00;;;12.90;49.90;;;;;;5094255;28;20020;-31
2022/03/23 09:02:21;;;;;;;20.60;12.10;;;13.00;49.80;;;;;;5094097;28;20016;-30
2022/03/23 09:04:46;;;;;;;19.08;12.20;;;13.00;49.70;;;;;;5094087;28;20024;-30
2022/03/23 09:07:12;;;;;;;20.73;12.18;;;13.10;49.60;;;;;;5076091;28;20028;-30
2022/03/23 09:09:37;;;;;;;17.15;10.85;;;13.20;49.60;;;;;;5094077;28;20024;-30
2022/03/23 09:12:03;;;;;;;19.33;12.23;;;13.30;49.50;;;;;;5094109;28;20032;-30
2022/03/23 09:14:29;;;;;;;19.02;13.07;;;13.30;49.30;;;;;;5093992;28;20028;-30
2022/03/23 09:16:54;;;;;;;20.48;12.68;;;13.40;49.20;;;;;;5093907;28;20461;-30
2022/03/23 09:19:20;;;;;;;18.73;12.80;;;13.50;49.00;;;;;;5094232;28;20020;-30
2022/03/23 09:21:50;;;;;;;27.00;13.45;;;13.60;48.90;;;;;;5094104;28;20020;-29
2022/03/23 09:24:19;;;;;;;21.40;12.45;;;13.70;48.70;;;;;;5093612;28;20059;-30
2022/03/23 09:26:45;;;;;;;19.05;12.48;;;13.80;48.60;;;;;;5093801;28;20039;-30
2022/03/23 09:29:10;;;;;;;16.83;11.77;;;13.80;48.50;;;;;;5093756;28;20472;-30
2022/03/23 09:31:36;;;;;;;22.00;12.88;;;13.90;48.30;;;;;;5093890;28;20016;-30
2022/03/23 09:34:02;;;;;;;19.23;12.85;;;14.00;48.20;;;;;;5093538;28;20432;-30
2022/03/23 09:39:16;;;;;;;17.55;12.60;;;14.20;48.20;;;;;;5093670;28;20031;-30
2022/03/23 09:41:45;;;;;;;17.52;12.13;;;14.30;48.10;;;;;;5093435;28;20024;-30
2022/03/23 09:44:11;;;;;;;19.40;13.13;;;14.40;48.00;;;;;;5093701;28;20040;-29
2022/03/23 09:46:37;;;;;;;21.60;13.30;;;14.40;47.80;;;;;;5093290;28;20020;-30
2022/03/23 09:49:05;;;;;;;19.88;13.40;;;14.50;47.70;;;;;;5093397;28;20031;-32
2022/03/23 09:51:32;;;;;;;20.58;12.32;;;14.60;47.60;;;;;;5093249;28;20460;-29
2022/03/23 09:53:59;;;;;;;21.10;13.60;;;14.70;47.50;;;;;;5093422;28;20085;-31
2022/03/23 09:56:24;;;;;;;24.02;13.75;;;14.70;47.30;;;;;;5092890;28;20101;-29
2022/03/23 09:58:50;;;;;;;20.42;12.75;;;14.80;47.20;;;;;;5093157;28;20012;-30
2022/03/23 10:01:49;;;;;;;21.67;13.38;;;14.80;46.90;;;;;;5093343;28;20035;-29
2022/03/23 10:04:19;;;;;;;26.50;13.45;;;15.00;46.60;;;;;;5092967;28;20484;-31
2022/03/23 10:06:56;;;;;;;22.98;13.95;;;15.00;46.60;;;;;;5092984;28;20024;-32
2022/03/23 10:09:49;;;;;;;21.65;14.07;;;15.10;46.20;;;;;;5092928;28;20032;-29
2022/03/23 10:12:20;;;;;;;21.05;14.13;;;15.20;46.00;;;;;;5093011;28;20077;-31
2022/03/23 10:15:04;;;;;;;23.05;13.27;;;15.30;45.90;;;;;;5093158;28;20032;-36
2022/03/23 10:17:29;;;;;;;24.13;13.82;;;15.40;45.70;;;;;;5093147;28;20039;-30
2022/03/23 10:19:55;;;;;;;21.73;13.70;;;15.50;45.60;;;;;;5093019;28;20016;-33
2022/03/23 10:22:26;;;;;;;21.60;13.50;;;15.60;45.40;;;;;;5093029;28;20502;-29
2022/03/23 10:24:52;;;;;;;19.50;12.77;;;15.70;45.30;;;;;;5093074;28;20047;-29
2022/03/23 10:27:20;;;;;;;23.20;13.23;;;15.80;45.60;;;;;;5092968;28;20468;-29
2022/03/23 10:29:48;;;;;;;16.80;11.63;;;15.90;45.20;;;;;;5093530;28;20066;-29
2022/03/23 10:32:14;;;;;;;20.85;12.15;;;16.00;44.90;;;;;;5097024;28;20028;-28
2022/03/23 10:34:44;;;;;;;16.25;12.43;;;16.00;44.70;;;;;;5097087;28;20103;-31
2022/03/23 10:37:12;;;;;;;22.27;12.35;;;16.10;44.40;;;;;;5096977;28;20073;-30
2022/03/23 10:39:38;;;;;;;15.70;11.20;;;16.10;44.20;;;;;;5096998;28;20023;-29
2022/03/23 10:42:14;;;;;;;17.40;12.02;;;16.20;44.20;;;;;;5096864;28;20380;-31
2022/03/23 10:44:41;;;;;;;16.92;12.05;;;16.20;44.30;;;;;;5096806;28;20024;-29
2022/03/23 10:47:06;;;;;;;16.27;11.10;;;16.20;44.10;;;;;;5096860;28;20502;-30
2022/03/23 10:49:38;;;;;;;20.10;12.07;;;16.30;43.90;;;;;;5096708;28;20028;-30
2022/03/23 10:52:15;;;;;;;15.45;10.52;;;16.40;43.60;;;;;;5096831;28;20031;-30
2022/03/23 10:55:00;;;;;;;19.63;11.85;;;16.50;44.10;;;;;;5096673;28;20028;-32
2022/03/23 10:57:44;;;;;;;20.27;12.48;;;16.60;43.40;;;;;;5096343;28;20518;-30
2022/03/23 11:00:17;;;;;;;17.75;11.65;;;16.70;43.30;;;;;;5078374;28;20032;-30
2022/03/23 11:02:48;;;;;;;16.30;11.80;;;16.70;43.40;;;;;;5078322;28;20058;-31
2022/03/23 11:05:33;;;;;;;17.73;12.02;;;16.80;43.30;;;;;;5096575;28;20028;-29
2022/03/23 11:08:08;;;;;;;18.25;11.13;;;16.80;43.20;;;;;;5096520;28;20369;-29
2022/03/23 11:16:12;;;;;;;18.15;12.10;;;16.90;42.40;;;;;;5096471;28;20054;-31
2022/03/23 11:18:39;;;;;;;18.42;12.65;;;16.90;42.00;;;;;;5096210;28;20031;-28
2022/03/23 11:21:05;;;;;;;20.25;12.55;;;16.90;42.30;;;;;;5096173;28;20103;-30
2022/03/23 11:23:35;;;;;;;19.10;12.30;;;16.90;42.40;;;;;;5096062;28;20059;-29
2022/03/23 11:26:07;;;;;;;19.70;12.32;;;17.00;42.40;;;;;;5096400;28;20438;-29
2022/03/23 11:28:47;;;;;;;19.48;11.85;;;17.10;42.60;;;;;;5095949;28;20388;-31
2022/03/23 11:31:16;;;;;;;19.63;12.68;;;17.20;42.70;;;;;;5095982;28;20107;-29
2022/03/23 11:33:45;;;;;;;19.02;12.13;;;17.30;42.70;;;;;;5077629;28;20115;-29
2022/03/23 11:36:12;;;;;;;17.85;10.98;;;17.30;42.80;;;;;;5095865;28;20039;-29
2022/03/23 11:38:39;;;;;;;19.80;11.73;;;17.40;43.40;;;;;;5095809;28;20028;-29
2022/03/23 11:41:06;;;;;;;16.77;11.95;;;17.50;43.10;;;;;;5094890;28;20032;-30
2022/03/23 11:43:36;;;;;;;17.75;11.65;;;17.60;43.20;;;;;;5095219;28;20400;-29
2022/03/23 11:46:04;;;;;;;18.05;12.52;;;17.60;42.90;;;;;;5095918;28;20028;-30
2022/03/23 11:48:33;;;;;;;17.50;11.35;;;17.70;42.60;;;;;;5095855;28;20392;-29
2022/03/23 11:51:50;;;;;;;18.42;11.82;;;17.70;42.70;;;;;;5095628;28;20024;-29
2022/03/23 11:58:00;;;;;;;18.27;9.98;;;18.00;43.00;;;;;;4993509;28;20141;-31
2022/03/23 12:00:28;;;;;;;13.88;7.88;;;18.00;41.80;;;;;;5077055;28;20035;-29
2022/03/23 12:02:55;;;;;;;14.63;8.77;;;18.10;41.90;;;;;;5095130;28;20054;-30
2022/03/23 12:05:29;;;;;;;13.65;9.23;;;18.10;41.40;;;;;;5095243;28;20103;-29
2022/03/23 12:07:55;;;;;;;14.18;8.23;;;18.20;41.00;;;;;;5095018;28;20031;-30
2022/03/23 12:10:24;;;;;;;15.18;10.65;;;18.20;41.00;;;;;;5094880;28;20085;-32
2022/03/23 12:12:50;;;;;;;15.05;10.27;;;18.30;41.00;;;;;;5094819;28;20032;-29
2022/03/23 12:15:22;;;;;;;17.05;9.48;;;18.30;40.90;;;;;;5094827;28;20035;-32
2022/03/23 12:17:54;;;;;;;16.35;9.75;;;18.30;40.50;;;;;;5094654;28;20047;-29
2022/03/23 12:20:27;;;;;;;13.98;8.00;;;18.40;40.10;;;;;;5094941;28;20035;-34
2022/03/23 12:23:13;;;;;;;10.75;7.22;;;18.40;39.80;;;;;;5094883;28;20472;-31
2022/03/23 12:26:21;;;;;;;13.38;7.25;;;18.50;39.30;;;;;;5034037;28;20040;-30
2022/03/23 12:29:00;;;;;;;14.02;7.15;;;18.50;38.90;;;;;;5057163;28;20032;-29
2022/03/23 12:31:37;;;;;;;16.27;7.15;;;18.60;38.80;;;;;;5094773;28;20034;-30
2022/03/23 12:34:20;;;;;;;10.43;7.18;;;18.70;38.60;;;;;;5094842;28;20107;-29
2022/03/23 12:37:01;;;;;;;;;;;18.70;38.60;;;;;;5095105;28;20074;-30
2022/03/23 12:39:39;;;;;;;15.27;8.57;;;18.70;39.10;;;;;;5094619;28;19914;-30
2022/03/23 12:42:16;;;;;;;16.70;9.23;;;18.90;39.00;;;;;;5094861;28;20020;-30
2022/03/23 12:44:43;;;;;;;16.40;8.95;;;18.90;38.70;;;;;;5094788;28;20044;-30
2022/03/23 12:47:25;;;;;;;17.27;8.57;;;19.00;38.50;;;;;;5094424;28;20480;-31
2022/03/23 12:58:13;;;;;;;10.55;6.65;;;19.30;38.00;;;;;;5094157;28;20127;-32
2022/03/23 13:00:42;;;;;;;10.77;4.82;;;19.30;37.50;;;;;;5094174;28;20032;-32
2022/03/23 13:03:07;;;;;;;11.35;5.30;;;19.40;37.50;;;;;;5094172;28;20064;-31
2022/03/23 13:05:35;;;;;;;10.65;5.60;;;19.50;37.50;;;;;;5093964;28;20066;-29
2022/03/23 13:08:21;;;;;;;13.13;6.50;;;19.60;37.40;;;;;;5094026;28;20035;-30